Time,TemperatureF,DewpointF,PressureIn,WindDirection,WindDirectionDegrees,WindSpeedMPH,WindSpeedGustMPH,Humidity,HourlyPrecipIn,Conditions,Clouds,dailyrainin,SoftwareType,DateUTC
2013-09-05 00:10:00,65.4,55.0,30.04,WSW,246,0.0,3.0,70,0.00,,,0.00,weatherlink.com 1.10,2013-09-05 04:10:00,
2013-09-05 00:25:00,65.0,55.0,30.03,SW,219,0.0,3.0,71,0.00,,,0.00,weatherlink.com 1.10,2013-09-05 04:25:00,
2013-09-05 00:41:00,63.4,55.0,30.03,SW,219,0.0,0.0,75,0.00,,,0.00,weatherlink.com 1.10,2013-09-05 04:41:00,
2013-09-05 00:56:00,62.9,56.0,30.03,SW,219,0.0,1.0,77,0.00,,,0.00,weatherlink.com 1.10,2013-09-05 04:56:00,
2013-09-05 01:11:00,62.9,56.0,30.03,WSW,247,0.0,1.0,77,0.00,,,0.00,weatherlink.com 1.10,2013-09-05 05:11:00,
2013-09-05 01:26:00,63.3,55.0,30.02,WSW,247,0.0,1.0,75,0.00,,,0.00,weatherlink.com 1.10,2013-09-05 05:26:00,
2013-09-05 01:42:00,63.1,55.0,30.02,WSW,247,0.0,2.0,76,0.00,,,0.00,weatherlink.com 1.10,2013-09-05 05:42:00,
2013-09-05 01:57:00,63.2,56.0,30.02,WSW,242,0.0,2.0,76,0.00,,,0.00,weatherlink.com 1.10,2013-09-05 05:57:00,
2013-09-05 02:12:00,62.4,55.0,30.02,WSW,241,0.0,0.0,77,0.00,,,0.00,weatherlink.com 1.10,2013-09-05 06:12:00,
2013-09-05 02:27:00,61.7,55.0,30.02,WSW,242,0.0,1.0,79,0.00,,,0.00,weatherlink.com 1.10,2013-09-05 06:27:00,
2013-09-05 02:44:00,61.2,55.0,30.01,WSW,242,0.0,1.0,80,0.00,,,0.00,weatherlink.com 1.10,2013-09-05 06:44:00,
2013-09-05 02:59:00,60.5,55.0,30.01,WSW,242,0.0,0.0,81,0.00,,,0.00,weatherlink.com 1.10,2013-09-05 06:59:00,
2013-09-05 03:14:00,60.6,55.0,30.01,WSW,242,0.0,0.0,82,0.00,,,0.00,weatherlink.com 1.10,2013-09-05 07:14:00,
2013-09-05 03:29:00,60.9,55.0,30.01,WSW,242,0.0,1.0,81,0.00,,,0.00,weatherlink.com 1.10,2013-09-05 07:29:00,
2013-09-05 03:44:00,61.8,55.0,30.01,WSW,241,0.0,2.0,79,0.00,,,0.00,weatherlink.com 1.10,2013-09-05 07:44:00,
2013-09-05 03:59:00,61.3,55.0,30.00,WSW,241,0.0,0.0,80,0.00,,,0.00,weatherlink.com 1.10,2013-09-05 07:59:00,
2013-09-05 04:14:00,62.3,55.0,30.00,West,272,0.0,3.0,77,0.00,,,0.00,weatherlink.com 1.10,2013-09-05 08:14:00,
2013-09-05 04:29:00,62.0,55.0,30.01,West,271,0.0,0.0,78,0.00,,,0.00,weatherlink.com 1.10,2013-09-05 08:29:00,
2013-09-05 04:45:00,61.7,55.0,30.01,West,271,0.0,2.0,79,0.00,,,0.00,weatherlink.com 1.10,2013-09-05 08:45:00,
2013-09-05 05:00:00,61.7,55.0,30.01,West,266,0.0,2.0,79,0.00,,,0.00,weatherlink.com 1.10,2013-09-05 09:00:00,
2013-09-05 05:15:00,63.5,55.0,30.01,SW,232,1.0,5.0,75,0.00,,,0.00,weatherlink.com 1.10,2013-09-05 09:15:00,
2013-09-05 05:30:00,63.3,56.0,30.01,SW,225,2.0,5.0,76,0.00,,,0.00,weatherlink.com 1.10,2013-09-05 09:30:00,
2013-09-05 05:45:00,63.3,56.0,30.01,SW,236,0.0,4.0,76,0.00,,,0.00,weatherlink.com 1.10,2013-09-05 09:45:00,
2013-09-05 06:01:00,62.8,56.0,30.01,SW,225,0.0,3.0,77,0.00,,,0.00,weatherlink.com 1.10,2013-09-05 10:01:00,
2013-09-05 06:16:00,62.7,56.0,30.01,SW,230,1.0,4.0,78,0.00,,,0.00,weatherlink.com 1.10,2013-09-05 10:16:00,
2013-09-05 06:31:00,62.7,56.0,30.02,West,263,0.0,4.0,78,0.00,,,0.00,weatherlink.com 1.10,2013-09-05 10:31:00,
2013-09-05 06:46:00,62.5,56.0,30.02,SW,220,5.0,5.0,79,0.00,,,0.00,weatherlink.com 1.10,2013-09-05 10:46:00,
2013-09-05 07:01:00,63.5,56.0,30.02,West,259,1.0,4.0,77,0.00,,,0.00,weatherlink.com 1.10,2013-09-05 11:01:00,
2013-09-05 07:17:00,63.8,56.0,30.02,WSW,252,0.0,6.0,76,0.00,,,0.00,weatherlink.com 1.10,2013-09-05 11:17:00,
2013-09-05 07:32:00,65.0,57.0,30.02,SW,228,3.0,5.0,75,0.00,,,0.00,weatherlink.com 1.10,2013-09-05 11:32:00,
2013-09-05 07:47:00,65.7,57.0,30.03,WSW,243,1.0,5.0,74,0.00,,,0.00,weatherlink.com 1.10,2013-09-05 11:47:00,
2013-09-05 08:04:00,66.7,58.0,30.03,WSW,250,1.0,6.0,73,0.00,,,0.00,weatherlink.com 1.10,2013-09-05 12:04:00,
2013-09-05 08:19:00,67.3,58.0,30.04,WSW,252,1.0,5.0,72,0.00,,,0.00,weatherlink.com 1.10,2013-09-05 12:19:00,
2013-09-05 08:34:00,68.2,58.0,30.04,NW,311,4.0,6.0,71,0.00,,,0.00,weatherlink.com 1.10,2013-09-05 12:34:00,
2013-09-05 08:49:00,69.1,60.0,30.03,WNW,290,1.0,3.0,72,0.00,,,0.00,weatherlink.com 1.10,2013-09-05 12:49:00,
2013-09-05 09:04:00,69.8,60.0,30.04,NNW,348,0.0,4.0,72,0.00,,,0.00,weatherlink.com 1.10,2013-09-05 13:04:00,
2013-09-05 09:19:00,70.6,60.0,30.04,WNW,284,1.0,7.0,68,0.00,,,0.00,weatherlink.com 1.10,2013-09-05 13:19:00,
2013-09-05 09:34:00,70.8,60.0,30.05,WNW,291,3.0,9.0,68,0.00,,,0.00,weatherlink.com 1.10,2013-09-05 13:34:00,
2013-09-05 09:49:00,71.1,60.0,30.05,SW,230,5.0,10.0,68,0.00,,,0.00,weatherlink.com 1.10,2013-09-05 13:49:00,
2013-09-05 10:05:00,72.0,61.0,30.04,WNW,292,3.0,6.0,68,0.00,,,0.00,weatherlink.com 1.10,2013-09-05 14:05:00,
2013-09-05 10:20:00,72.4,61.0,30.05,West,269,0.0,8.0,68,0.00,,,0.00,weatherlink.com 1.10,2013-09-05 14:20:00,
2013-09-05 10:35:00,72.6,61.0,30.05,NW,304,3.0,8.0,66,0.00,,,0.00,weatherlink.com 1.10,2013-09-05 14:35:00,
2013-09-05 10:51:00,73.7,61.0,30.03,West,279,4.0,8.0,65,0.00,,,0.00,weatherlink.com 1.10,2013-09-05 14:51:00,
2013-09-05 11:06:00,73.8,60.0,30.04,NW,317,1.0,8.0,63,0.00,,,0.00,weatherlink.com 1.10,2013-09-05 15:06:00,
2013-09-05 11:21:00,74.0,61.0,30.04,WNW,288,5.0,9.0,64,0.00,,,0.00,weatherlink.com 1.10,2013-09-05 15:21:00,
2013-09-05 11:36:00,74.4,61.0,30.04,West,264,4.0,10.0,63,0.00,,,0.00,weatherlink.com 1.10,2013-09-05 15:36:00,
2013-09-05 11:51:00,74.5,61.0,30.04,WNW,292,3.0,9.0,63,0.00,,,0.00,weatherlink.com 1.10,2013-09-05 15:51:00,
2013-09-05 12:07:00,75.4,61.0,30.04,ENE,59,3.0,10.0,61,0.00,,,0.00,weatherlink.com 1.10,2013-09-05 16:07:00,
2013-09-05 12:22:00,73.8,60.0,30.05,West,265,3.0,9.0,62,0.00,,,0.00,weatherlink.com 1.10,2013-09-05 16:22:00,
2013-09-05 12:37:00,73.5,60.0,30.04,NW,324,7.0,8.0,62,0.00,,,0.00,weatherlink.com 1.10,2013-09-05 16:37:00,
2013-09-05 12:54:00,74.7,60.0,30.04,NNE,13,1.0,10.0,60,0.00,,,0.00,weatherlink.com 1.10,2013-09-05 16:54:00,
2013-09-05 13:09:00,76.5,60.0,30.04,NNE,30,0.0,11.0,57,0.00,,,0.00,weatherlink.com 1.10,2013-09-05 17:09:00,
2013-09-05 13:24:00,75.3,58.0,30.04,WSW,242,3.0,10.0,56,0.00,,,0.00,weatherlink.com 1.10,2013-09-05 17:24:00,
2013-09-05 13:39:00,74.8,59.0,30.04,North,360,0.0,9.0,58,0.00,,,0.00,weatherlink.com 1.10,2013-09-05 17:39:00,
2013-09-05 13:54:00,75.8,58.0,30.03,NNW,330,2.0,7.0,55,0.00,,,0.00,weatherlink.com 1.10,2013-09-05 17:54:00,
2013-09-05 14:09:00,74.9,57.0,30.04,West,279,0.0,7.0,54,0.00,,,0.00,weatherlink.com 1.10,2013-09-05 18:09:00,
2013-09-05 14:24:00,76.9,57.0,30.03,NNW,329,4.0,7.0,51,0.00,,,0.00,weatherlink.com 1.10,2013-09-05 18:24:00,
2013-09-05 14:39:00,77.5,54.0,30.03,WNW,298,4.0,9.0,45,0.00,,,0.00,weatherlink.com 1.10,2013-09-05 18:39:00,
2013-09-05 15:10:00,76.8,53.0,30.03,NE,42,1.0,9.0,43,0.00,,,0.00,weatherlink.com 1.10,2013-09-05 19:10:00,
2013-09-05 15:25:00,76.8,51.0,30.02,NE,45,1.0,10.0,41,0.00,,,0.00,weatherlink.com 1.10,2013-09-05 19:25:00,
2013-09-05 15:40:00,77.9,52.0,30.02,North,355,1.0,8.0,41,0.00,,,0.00,weatherlink.com 1.10,2013-09-05 19:40:00,
2013-09-05 15:56:00,77.0,53.0,30.02,ENE,75,3.0,9.0,44,0.00,,,0.00,weatherlink.com 1.10,2013-09-05 19:56:00,
2013-09-05 16:11:00,76.0,55.0,30.03,NNE,32,5.0,9.0,49,0.00,,,0.00,weatherlink.com 1.10,2013-09-05 20:11:00,
2013-09-05 16:26:00,76.2,55.0,30.03,WNW,298,5.0,11.0,48,0.00,,,0.00,weatherlink.com 1.10,2013-09-05 20:26:00,
2013-09-05 16:41:00,76.8,54.0,30.03,East,86,0.0,9.0,45,0.00,,,0.00,weatherlink.com 1.10,2013-09-05 20:41:00,
2013-09-05 16:56:00,77.1,52.0,30.03,East,85,2.0,8.0,41,0.00,,,0.00,weatherlink.com 1.10,2013-09-05 20:56:00,
2013-09-05 17:12:00,77.7,52.0,30.03,SSW,209,0.0,6.0,41,0.00,,,0.00,weatherlink.com 1.10,2013-09-05 21:12:00,
2013-09-05 17:27:00,77.0,49.0,30.04,East,90,1.0,6.0,37,0.00,,,0.00,weatherlink.com 1.10,2013-09-05 21:27:00,
2013-09-05 17:42:00,76.9,49.0,30.04,WNW,286,0.0,9.0,37,0.00,,,0.00,weatherlink.com 1.10,2013-09-05 21:42:00,
2013-09-05 17:57:00,75.5,48.0,30.05,ENE,71,0.0,7.0,38,0.00,,,0.00,weatherlink.com 1.10,2013-09-05 21:57:00,
2013-09-05 18:14:00,74.5,47.0,30.05,NNE,27,3.0,7.0,38,0.00,,,0.00,weatherlink.com 1.10,2013-09-05 22:14:00,
2013-09-05 18:29:00,73.9,47.0,30.05,NE,43,5.0,11.0,39,0.00,,,0.00,weatherlink.com 1.10,2013-09-05 22:29:00,
2013-09-05 18:44:00,72.8,48.0,30.06,East,94,1.0,7.0,41,0.00,,,0.00,weatherlink.com 1.10,2013-09-05 22:44:00,
2013-09-05 18:59:00,72.1,46.0,30.06,ENE,73,0.0,7.0,40,0.00,,,0.00,weatherlink.com 1.10,2013-09-05 22:59:00,
2013-09-05 19:14:00,71.2,47.0,30.07,ENE,69,0.0,5.0,42,0.00,,,0.00,weatherlink.com 1.10,2013-09-05 23:14:00,
2013-09-05 19:29:00,69.6,47.0,30.07,ENE,70,1.0,4.0,44,0.00,,,0.00,weatherlink.com 1.10,2013-09-05 23:29:00,
2013-09-05 19:44:00,68.8,47.0,30.08,ENE,64,2.0,6.0,46,0.00,,,0.00,weatherlink.com 1.10,2013-09-05 23:44:00,
2013-09-05 19:59:00,68.6,47.0,30.09,NE,34,2.0,6.0,46,0.00,,,0.00,weatherlink.com 1.10,2013-09-05 23:59:00,
2013-09-05 20:15:00,67.2,48.0,30.09,NE,51,0.0,4.0,50,0.00,,,0.00,weatherlink.com 1.10,2013-09-06 00:15:00,
2013-09-05 20:30:00,66.9,49.0,30.10,NE,44,0.0,3.0,52,0.00,,,0.00,weatherlink.com 1.10,2013-09-06 00:30:00,
2013-09-05 20:45:00,66.8,48.0,30.11,ENE,66,0.0,4.0,52,0.00,,,0.00,weatherlink.com 1.10,2013-09-06 00:45:00,
2013-09-05 21:00:00,66.1,49.0,30.11,NE,38,0.0,3.0,55,0.00,,,0.00,weatherlink.com 1.10,2013-09-06 01:00:00,
2013-09-05 21:16:00,65.1,49.0,30.11,ENE,65,0.0,2.0,56,0.00,,,0.00,weatherlink.com 1.10,2013-09-06 01:16:00,
2013-09-05 21:31:00,65.5,48.0,30.12,East,86,1.0,6.0,54,0.00,,,0.00,weatherlink.com 1.10,2013-09-06 01:31:00,
2013-09-05 21:46:00,64.4,49.0,30.13,East,92,0.0,1.0,57,0.00,,,0.00,weatherlink.com 1.10,2013-09-06 01:46:00,
2013-09-05 22:01:00,62.2,49.0,30.13,East,92,0.0,1.0,63,0.00,,,0.00,weatherlink.com 1.10,2013-09-06 02:01:00,
2013-09-05 22:17:00,60.6,50.0,30.14,East,92,0.0,0.0,68,0.00,,,0.00,weatherlink.com 1.10,2013-09-06 02:17:00,
2013-09-05 22:32:00,61.1,50.0,30.14,East,92,0.0,0.0,67,0.00,,,0.00,weatherlink.com 1.10,2013-09-06 02:32:00,
2013-09-05 22:47:00,60.8,50.0,30.15,East,92,0.0,0.0,68,0.00,,,0.00,weatherlink.com 1.10,2013-09-06 02:47:00,
2013-09-05 23:02:00,59.9,50.0,30.16,East,92,0.0,0.0,70,0.00,,,0.00,weatherlink.com 1.10,2013-09-06 03:02:00,
2013-09-05 23:19:00,59.9,50.0,30.16,East,92,0.0,0.0,70,0.00,,,0.00,weatherlink.com 1.10,2013-09-06 03:19:00,
2013-09-05 23:34:00,60.2,50.0,30.17,East,92,0.0,0.0,69,0.00,,,0.00,weatherlink.com 1.10,2013-09-06 03:34:00,
2013-09-05 23:49:00,61.5,49.0,30.17,ESE,107,1.0,4.0,64,0.00,,,0.00,weatherlink.com 1.10,2013-09-06 03:49:00,